Time;durP1;ratioP1;P1;durP2;ratioP2;P2;SDS_P1;SDS_P2;PMS_P1;PMS_P2;Temp;Humidity;BMP_temperature;BMP_pressure;BME280_temperature;BME280_humidity;BME280_pressure;Samples;Min_cycle;Max_cycle;Signal;HPM_P1;HPM_P2
2022/08/18 00:00:28;;;;;;;6.83;5.90;;;23.50;99.90;;;;;;1055638;28;20007;-64
2022/08/18 00:00:59;;;;;;;5.72;5.22;;;23.50;99.90;;;;;;1056201;28;20022;-65
2022/08/18 00:01:30;;;;;;;5.53;5.03;;;;;;;;;;1055700;28;20026;-64
2022/08/18 00:02:20;;;;;;;5.68;5.15;;;23.50;99.90;;;;;;1056122;28;20252;-65
2022/08/18 00:02:51;;;;;;;6.32;5.78;;;23.50;99.90;;;;;;1056140;28;20043;-65
2022/08/18 00:03:22;;;;;;;5.60;5.07;;;23.50;99.90;;;;;;1055556;28;20007;-65
2022/08/18 00:03:52;;;;;;;5.60;4.90;;;23.50;99.90;;;;;;1056159;28;20018;-65
2022/08/18 00:04:23;;;;;;;5.80;5.07;;;23.50;99.90;;;;;;1055626;28;20038;-64
2022/08/18 00:04:55;;;;;;;5.73;5.23;;;23.40;99.90;;;;;;1055933;28;20478;-65
2022/08/18 00:05:25;;;;;;;5.90;5.50;;;23.60;99.90;;;;;;1055792;28;20012;-64
2022/08/18 00:05:56;;;;;;;5.60;5.10;;;23.40;99.90;;;;;;1056323;28;20035;-64
2022/08/18 00:06:28;;;;;;;6.47;5.83;;;23.40;99.90;;;;;;1055600;28;20016;-63
2022/08/18 00:06:58;;;;;;;6.97;5.78;;;23.40;99.90;;;;;;1056036;28;20020;-64
2022/08/18 00:07:31;;;;;;;6.27;5.67;;;23.40;99.90;;;;;;1055648;28;20008;-64
2022/08/18 00:08:03;;;;;;;5.78;5.28;;;23.40;99.90;;;;;;1056175;28;20712;-64
2022/08/18 00:08:33;;;;;;;6.45;5.40;;;23.40;99.90;;;;;;1055793;28;20379;-64
2022/08/18 00:09:08;;;;;;;6.03;5.53;;;23.40;99.90;;;;;;1056074;28;20447;-64
2022/08/18 00:09:40;;;;;;;5.07;4.57;;;23.40;99.90;;;;;;1055814;28;20019;-64
2022/08/18 00:10:10;;;;;;;5.65;5.15;;;23.40;99.90;;;;;;1056102;28;20020;-65
2022/08/18 00:10:41;;;;;;;5.40;5.00;;;23.40;99.90;;;;;;1055758;28;20008;-64
2022/08/18 00:11:12;;;;;;;5.68;5.18;;;23.40;99.90;;;;;;1056100;28;20012;-64
2022/08/18 00:11:43;;;;;;;5.83;5.23;;;23.40;99.90;;;;;;1055775;28;20102;-64
2022/08/18 00:12:21;;;;;;;6.13;5.40;;;23.40;99.90;;;;;;1056040;28;20100;-64
2022/08/18 00:12:52;;;;;;;5.40;4.90;;;23.40;99.90;;;;;;1053945;28;20012;-64
2022/08/18 00:13:23;;;;;;;5.70;5.20;;;23.40;99.90;;;;;;1054985;28;20344;-64
2022/08/18 00:13:54;;;;;;;5.93;5.03;;;23.40;99.90;;;;;;1051689;28;20296;-65
2022/08/18 00:14:24;;;;;;;5.27;4.77;;;23.40;99.90;;;;;;1051518;28;20106;-64
2022/08/18 00:14:56;;;;;;;5.20;4.70;;;23.40;99.90;;;;;;1051656;28;20020;-65
2022/08/18 00:15:27;;;;;;;5.38;4.88;;;23.40;99.90;;;;;;1051654;28;20096;-64
2022/08/18 00:15:57;;;;;;;5.50;5.00;;;23.40;99.90;;;;;;1051741;28;20080;-64
2022/08/18 00:16:28;;;;;;;6.67;5.93;;;23.40;99.90;;;;;;1051723;28;20020;-65
2022/08/18 00:16:58;;;;;;;6.03;4.63;;;23.40;99.90;;;;;;1051716;28;20020;-64
2022/08/18 00:17:30;;;;;;;7.97;5.90;;;23.40;99.90;;;;;;1051684;28;20020;-64
2022/08/18 00:18:00;;;;;;;6.45;5.85;;;23.40;99.90;;;;;;1054192;28;20106;-64
2022/08/18 00:18:31;;;;;;;6.37;5.87;;;23.40;99.90;;;;;;1055846;28;20022;-64
2022/08/18 00:19:01;;;;;;;5.60;5.10;;;23.40;99.90;;;;;;1055943;28;20015;-63
2022/08/18 00:19:32;;;;;;;6.10;5.50;;;23.40;99.90;;;;;;1055803;28;20104;-64
2022/08/18 00:20:09;;;;;;;6.60;5.17;;;23.40;99.90;;;;;;1055859;28;20016;-64
2022/08/18 00:20:40;;;;;;;5.72;5.22;;;23.40;99.90;;;;;;1051451;28;20873;-65
2022/08/18 00:21:11;;;;;;;5.53;4.90;;;23.40;99.90;;;;;;1051287;28;20345;-64
2022/08/18 00:21:41;;;;;;;5.57;5.07;;;23.40;99.90;;;;;;1051490;28;20058;-64
2022/08/18 00:22:14;;;;;;;5.40;5.00;;;23.40;99.90;;;;;;1051293;28;20040;-64
2022/08/18 00:22:46;;;;;;;5.78;5.28;;;23.40;99.90;;;;;;1051735;28;20012;-65
2022/08/18 00:23:17;;;;;;;5.50;5.05;;;23.40;99.90;;;;;;1051557;28;20012;-64
2022/08/18 00:23:47;;;;;;;5.40;4.95;;;23.40;99.90;;;;;;1051654;28;20111;-65
2022/08/18 00:24:18;;;;;;;5.20;4.27;;;23.40;99.90;;;;;;1051678;28;20043;-64
2022/08/18 00:24:52;;;;;;;5.20;4.70;;;23.40;99.90;;;;;;1051667;28;20497;-64
2022/08/18 00:25:23;;;;;;;5.57;5.00;;;23.40;99.90;;;;;;1051318;28;20361;-65
2022/08/18 00:25:54;;;;;;;5.50;5.00;;;23.30;99.90;;;;;;1051860;28;20374;-65
2022/08/18 00:26:25;;;;;;;6.93;5.30;;;23.40;99.90;;;;;;1051317;28;20467;-64
2022/08/18 00:26:56;;;;;;;5.30;4.82;;;23.40;99.90;;;;;;1051350;28;20051;-64
2022/08/18 00:27:29;;;;;;;5.35;4.80;;;23.40;99.90;;;;;;1051124;28;20024;-65
2022/08/18 00:28:00;;;;;;;6.40;5.65;;;23.40;99.90;;;;;;1051801;28;20555;-64
2022/08/18 00:28:31;;;;;;;5.13;4.63;;;23.40;99.90;;;;;;1051513;28;20563;-64
2022/08/18 00:29:01;;;;;;;6.73;4.67;;;23.40;99.90;;;;;;1051806;28;20546;-65
2022/08/18 00:29:32;;;;;;;5.53;5.03;;;23.40;99.90;;;;;;1051565;28;20070;-65
2022/08/18 00:30:06;;;;;;;5.10;4.70;;;23.40;99.90;;;;;;1051935;28;20442;-64
2022/08/18 00:30:37;;;;;;;5.30;4.80;;;23.40;99.90;;;;;;1051314;28;20020;-67
2022/08/18 00:31:07;;;;;;;5.53;5.03;;;23.40;99.90;;;;;;1051795;28;20412;-64
2022/08/18 00:31:38;;;;;;;5.97;5.47;;;23.40;99.90;;;;;;1051522;28;20069;-64
2022/08/18 00:32:14;;;;;;;6.27;5.67;;;23.40;99.90;;;;;;1051775;28;20047;-64
2022/08/18 00:32:53;;;;;;;5.53;5.00;;;23.40;99.90;;;;;;1051400;28;20016;-64
2022/08/18 00:33:24;;;;;;;6.18;5.57;;;23.30;99.90;;;;;;1051518;28;20040;-64
2022/08/18 00:33:54;;;;;;;5.73;5.10;;;23.30;99.90;;;;;;1051607;28;20020;-64
2022/08/18 00:34:25;;;;;;;6.00;5.37;;;23.30;99.90;;;;;;1051614;28;20016;-64
2022/08/18 00:34:56;;;;;;;6.33;5.73;;;23.30;99.90;;;;;;1051597;28;20122;-64
2022/08/18 00:35:30;;;;;;;5.37;4.87;;;23.30;99.90;;;;;;1051470;28;20027;-64
2022/08/18 00:36:00;;;;;;;5.60;5.05;;;23.30;99.90;;;;;;1051589;28;20119;-64
2022/08/18 00:36:31;;;;;;;5.73;5.23;;;23.30;99.90;;;;;;1051536;28;20040;-64
2022/08/18 00:37:01;;;;;;;6.63;5.33;;;23.30;99.90;;;;;;1051580;28;20019;-66
2022/08/18 00:37:32;;;;;;;5.87;4.90;;;23.40;99.90;;;;;;1051560;28;20048;-65
2022/08/18 00:38:06;;;;;;;5.53;4.95;;;23.30;99.90;;;;;;1051599;28;20020;-64
2022/08/18 00:38:37;;;;;;;5.60;5.10;;;23.30;99.90;;;;;;1051531;28;20017;-64
2022/08/18 00:39:08;;;;;;;7.55;5.70;;;23.30;99.90;;;;;;1051469;28;20026;-65
2022/08/18 00:39:39;;;;;;;6.07;5.47;;;23.30;99.90;;;;;;1051642;28;20031;-64
2022/08/18 00:40:13;;;;;;;5.17;4.67;;;23.30;99.90;;;;;;1051513;28;20020;-64
2022/08/18 00:40:50;;;;;;;6.38;5.65;;;23.30;99.90;;;;;;1051621;28;20020;-64
2022/08/18 00:41:25;;;;;;;5.68;5.15;;;23.30;99.90;;;;;;1051347;28;20020;-65
2022/08/18 00:41:55;;;;;;;5.80;5.30;;;23.20;99.90;;;;;;1051773;28;20609;-64
2022/08/18 00:42:28;;;;;;;5.23;4.80;;;23.30;99.90;;;;;;1051316;28;20443;-64
2022/08/18 00:43:03;;;;;;;6.68;4.97;;;23.30;99.90;;;;;;1051782;28;20024;-64
2022/08/18 00:43:57;;;;;;;5.97;5.45;;;23.30;99.90;;;;;;1051244;28;20024;-65
2022/08/18 00:44:27;;;;;;;5.10;4.60;;;23.30;99.90;;;;;;1051176;28;20013;-65
2022/08/18 00:45:01;;;;;;;6.03;5.43;;;23.30;99.90;;;;;;1051909;28;20012;-65
2022/08/18 00:45:35;;;;;;;6.18;4.53;;;23.30;99.90;;;;;;1051457;28;20020;-64
2022/08/18 00:46:08;;;;;;;6.57;5.97;;;23.30;99.90;;;;;;1051773;28;20058;-64
2022/08/18 00:46:38;;;;;;;5.63;5.13;;;23.30;99.90;;;;;;1052827;28;20549;-64
2022/08/18 00:47:09;;;;;;;6.07;5.57;;;23.30;99.90;;;;;;1055819;28;20019;-64
2022/08/18 00:47:40;;;;;;;6.72;5.22;;;23.30;99.90;;;;;;1055577;28;20015;-64
2022/08/18 00:48:12;;;;;;;6.55;5.13;;;23.30;99.90;;;;;;1056080;28;20027;-64
2022/08/18 00:48:43;;;;;;;5.72;5.22;;;23.20;99.90;;;;;;1055484;28;20420;-64
2022/08/18 00:49:15;;;;;;;5.60;5.10;;;23.20;99.90;;;;;;1055979;28;20486;-64
2022/08/18 00:49:50;;;;;;;5.70;5.20;;;23.20;99.90;;;;;;1055524;28;20011;-64
2022/08/18 00:50:27;;;;;;;6.32;5.72;;;23.20;99.90;;;;;;1055713;28;20069;-64
2022/08/18 00:51:02;;;;;;;5.82;5.28;;;23.20;99.90;;;;;;1055899;28;20542;-64
2022/08/18 00:51:45;;;;;;;5.90;5.22;;;23.20;99.90;;;;;;1055625;28;20107;-64
2022/08/18 00:52:17;;;;;;;6.00;5.25;;;23.20;99.90;;;;;;1055907;28;20383;-64
2022/08/18 00:52:58;;;;;;;6.07;5.47;;;23.20;99.90;;;;;;1055653;28;20019;-64
2022/08/18 00:53:36;;;;;;;5.53;5.10;;;23.20;99.90;;;;;;1055602;28;20019;-64
2022/08/18 00:54:17;;;;;;;5.63;5.13;;;23.20;99.90;;;;;;1055768;28;20399;-64
2022/08/18 00:54:50;;;;;;;6.18;5.57;;;23.20;99.90;;;;;;1055478;28;20019;-64
2022/08/18 00:55:22;;;;;;;4.97;4.50;;;23.20;99.90;;;;;;1055825;28;20495;-66
2022/08/18 00:55:55;;;;;;;5.30;4.90;;;23.20;99.90;;;;;;1055698;28;20011;-64
2022/08/18 00:56:32;;;;;;;5.40;4.90;;;23.20;99.90;;;;;;1055540;28;20069;-64
2022/08/18 00:57:05;;;;;;;5.57;5.00;;;23.20;99.90;;;;;;1055566;28;20020;-65
2022/08/18 00:57:36;;;;;;;5.60;4.93;;;23.20;99.90;;;;;;1055745;28;20122;-66
2022/08/18 00:58:14;;;;;;;5.07;4.57;;;23.20;99.90;;;;;;1055747;28;20020;-64
2022/08/18 00:58:51;;;;;;;5.68;5.18;;;23.20;99.90;;;;;;1055825;28;20423;-64
2022/08/18 00:59:30;;;;;;;5.60;5.10;;;23.20;99.90;;;;;;1055660;28;20019;-65
2022/08/18 01:00:10;;;;;;;5.53;5.03;;;23.20;99.90;;;;;;1055595;28;20770;-65
2022/08/18 01:00:43;;;;;;;5.38;4.88;;;23.20;99.90;;;;;;1055757;28;20106;-64
2022/08/18 01:01:17;;;;;;;5.38;4.88;;;23.20;99.90;;;;;;1055683;28;20091;-64
2022/08/18 01:01:50;;;;;;;5.20;4.63;;;23.20;99.90;;;;;;1055738;28;20019;-64
2022/08/18 01:02:27;;;;;;;5.03;4.53;;;23.20;99.90;;;;;;1055409;28;20227;-64
2022/08/18 01:03:02;;;;;;;6.05;5.13;;;23.20;99.90;;;;;;1055927;28;20098;-64
2022/08/18 01:03:38;;;;;;;5.85;5.18;;;23.20;99.90;;;;;;1055600;28;20019;-64
2022/08/18 01:04:16;;;;;;;5.35;4.85;;;23.20;99.90;;;;;;1055757;28;20019;-63
2022/08/18 01:04:58;;;;;;;5.55;4.90;;;23.20;99.90;;;;;;1055656;28;20099;-63
2022/08/18 01:05:36;;;;;;;5.32;4.82;;;23.20;99.90;;;;;;1055391;28;20722;-63
2022/08/18 01:06:38;;;;;;;5.43;4.93;;;23.20;99.90;;;;;;1055966;28;20020;-64
2022/08/18 01:07:32;;;;;;;6.20;5.55;;;23.20;99.90;;;;;;1055841;28;20024;-64
2022/08/18 01:08:03;;;;;;;6.05;4.90;;;23.20;99.90;;;;;;1055819;28;20012;-64
2022/08/18 01:08:34;;;;;;;6.07;5.47;;;23.20;99.90;;;;;;1055545;28;20027;-64
2022/08/18 01:09:05;;;;;;;5.60;5.00;;;23.20;99.90;;;;;;1055944;28;20023;-64
2022/08/18 01:09:36;;;;;;;8.30;5.30;;;23.20;99.90;;;;;;1055279;28;20045;-64
2022/08/18 01:10:07;;;;;;;5.30;4.80;;;23.20;99.90;;;;;;1055776;28;20077;-64
2022/08/18 01:10:39;;;;;;;5.23;4.60;;;23.20;99.90;;;;;;1055397;28;20015;-64
2022/08/18 01:11:09;;;;;;;5.82;5.32;;;23.20;99.90;;;;;;1055859;28;20015;-64
2022/08/18 01:11:40;;;;;;;4.93;4.40;;;23.20;99.90;;;;;;1055493;28;20011;-63
2022/08/18 01:12:11;;;;;;;6.97;4.87;;;23.20;99.90;;;;;;1055832;28;20026;-64
2022/08/18 01:12:47;;;;;;;5.57;5.07;;;23.10;99.90;;;;;;1054765;28;20138;-64
2022/08/18 01:13:18;;;;;;;5.25;4.75;;;23.10;99.90;;;;;;1055459;28;20043;-64
2022/08/18 01:13:49;;;;;;;5.40;4.90;;;23.10;99.90;;;;;;1055629;28;20025;-64
2022/08/18 01:14:19;;;;;;;6.10;4.87;;;23.10;99.90;;;;;;1055730;28;20042;-66
2022/08/18 01:14:50;;;;;;;5.70;5.10;;;23.10;99.90;;;;;;1055384;28;20428;-64
2022/08/18 01:15:23;;;;;;;4.97;4.47;;;23.10;99.90;;;;;;1055741;28;20023;-64
2022/08/18 01:15:54;;;;;;;5.93;4.78;;;23.10;99.90;;;;;;1055550;28;20011;-64
2022/08/18 01:21:50;;;;;;;7.25;5.78;;;23.10;99.90;;;;;;1046625;28;20102;-64
2022/08/18 01:22:48;;;;;;;5.82;5.22;;;23.10;99.90;;;;;;1047367;28;20021;-63
2022/08/18 01:23:20;;;;;;;5.72;5.20;;;23.10;99.90;;;;;;1055467;28;20019;-64
2022/08/18 01:23:53;;;;;;;5.55;4.93;;;23.10;99.90;;;;;;1055795;28;20348;-65
2022/08/18 01:26:10;;;;;;;5.05;4.25;;;23.10;99.90;;;;;;1055726;28;20062;-64
2022/08/18 01:26:45;;;;;;;6.63;4.95;;;23.10;99.90;;;;;;1055432;28;20020;-65
2022/08/18 01:27:17;;;;;;;5.25;4.78;;;23.10;99.90;;;;;;1055680;28;20030;-64
2022/08/18 01:27:47;;;;;;;5.78;5.28;;;23.10;99.90;;;;;;1055486;28;20032;-65
2022/08/18 01:28:19;;;;;;;4.30;3.90;;;23.10;99.90;;;;;;1055769;28;20020;-64
2022/08/18 01:28:51;;;;;;;6.28;5.28;;;23.10;99.90;;;;;;1050774;28;20062;-64
2022/08/18 01:29:21;;;;;;;4.45;3.85;;;23.10;99.90;;;;;;1051029;28;20020;-64
2022/08/18 01:29:52;;;;;;;5.83;4.77;;;23.10;99.90;;;;;;1051243;28;20020;-64
2022/08/18 01:30:24;;;;;;;5.30;4.50;;;23.10;99.90;;;;;;1051267;28;20024;-63
2022/08/18 01:30:59;;;;;;;5.20;4.70;;;23.10;99.90;;;;;;1055544;28;20031;-64
2022/08/18 01:31:36;;;;;;;5.35;4.85;;;23.10;99.90;;;;;;1055392;28;20027;-63
2022/08/18 01:32:06;;;;;;;5.20;4.72;;;23.10;99.90;;;;;;1055920;28;20027;-64
2022/08/18 01:32:39;;;;;;;5.40;4.90;;;23.10;99.90;;;;;;1055381;28;20015;-64
2022/08/18 01:33:11;;;;;;;5.85;4.97;;;23.10;99.90;;;;;;1055661;28;20020;-65
2022/08/18 01:33:43;;;;;;;6.18;5.57;;;23.10;99.90;;;;;;1055256;28;20028;-64
2022/08/18 01:34:13;;;;;;;6.13;5.53;;;23.10;99.90;;;;;;1055893;28;20018;-64
2022/08/18 01:34:47;;;;;;;5.43;4.93;;;23.20;99.90;;;;;;1055534;28;20047;-64
2022/08/18 01:35:20;;;;;;;5.65;5.10;;;23.10;99.90;;;;;;1055776;28;20031;-64
2022/08/18 01:35:50;;;;;;;5.40;4.90;;;23.10;99.90;;;;;;1055482;28;20422;-64
2022/08/18 01:36:22;;;;;;;5.63;4.90;;;23.10;99.90;;;;;;1055623;28;20474;-64
2022/08/18 01:36:53;;;;;;;5.70;5.20;;;23.10;99.90;;;;;;1055569;28;20023;-64
2022/08/18 01:37:24;;;;;;;6.00;5.35;;;23.10;99.90;;;;;;1055697;28;20101;-64
2022/08/18 01:37:55;;;;;;;4.60;4.20;;;23.10;99.90;;;;;;1055618;28;20019;-64
2022/08/18 01:38:25;;;;;;;4.93;4.40;;;23.10;99.90;;;;;;1055341;28;20024;-65
2022/08/18 01:38:56;;;;;;;5.17;4.67;;;23.10;99.90;;;;;;1055552;28;20007;-66
2022/08/18 01:39:27;;;;;;;7.87;5.07;;;23.10;99.90;;;;;;1055644;28;20019;-66
2022/08/18 01:39:57;;;;;;;5.33;4.93;;;23.10;99.90;;;;;;1055698;28;20028;-65
2022/08/18 01:40:28;;;;;;;8.27;4.63;;;23.10;99.90;;;;;;1055449;28;20363;-64
2022/08/18 01:40:59;;;;;;;5.37;4.87;;;23.10;99.90;;;;;;1055768;28;20065;-65
2022/08/18 01:41:30;;;;;;;4.93;4.53;;;23.10;99.90;;;;;;1055497;28;20493;-65
2022/08/18 01:42:02;;;;;;;5.07;4.57;;;23.10;99.90;;;;;;1055679;28;20455;-64
2022/08/18 01:42:33;;;;;;;5.70;5.20;;;23.10;99.90;;;;;;1055602;28;20020;-64
2022/08/18 01:43:04;;;;;;;5.05;4.40;;;23.10;99.90;;;;;;1055255;28;20098;-64
2022/08/18 01:43:35;;;;;;;5.23;4.73;;;23.10;99.90;;;;;;1055505;28;20024;-65
2022/08/18 01:44:10;;;;;;;5.38;4.88;;;23.10;99.90;;;;;;1053243;28;20019;-65
2022/08/18 01:44:41;;;;;;;5.45;4.95;;;23.10;99.90;;;;;;1051303;28;20016;-64
2022/08/18 01:45:14;;;;;;;5.37;4.87;;;23.10;99.90;;;;;;1051499;28;20016;-65
2022/08/18 01:45:46;;;;;;;5.57;5.07;;;23.10;99.90;;;;;;1051308;28;20530;-64
2022/08/18 01:46:19;;;;;;;7.38;4.75;;;23.10;99.90;;;;;;1051250;28;20016;-64
2022/08/18 01:46:51;;;;;;;5.22;4.75;;;23.10;99.90;;;;;;1051448;28;20032;-65
2022/08/18 01:47:22;;;;;;;5.82;5.32;;;23.10;99.90;;;;;;1051213;28;20019;-64
2022/08/18 01:47:53;;;;;;;5.20;4.70;;;23.10;99.90;;;;;;1051768;28;20035;-65
2022/08/18 01:48:23;;;;;;;5.00;4.53;;;23.10;99.90;;;;;;1051073;28;20119;-64
2022/08/18 01:48:54;;;;;;;4.53;4.13;;;23.10;99.90;;;;;;1051520;28;20024;-65
2022/08/18 01:49:27;;;;;;;4.70;4.30;;;23.10;99.90;;;;;;1051170;28;20019;-64
2022/08/18 01:49:59;;;;;;;5.18;4.75;;;23.10;99.90;;;;;;1051493;28;20276;-65
2022/08/18 01:50:33;;;;;;;5.05;4.65;;;23.00;99.90;;;;;;1051075;28;20035;-64
2022/08/18 01:51:05;;;;;;;5.07;4.60;;;23.10;99.90;;;;;;1051476;28;20048;-65
2022/08/18 01:51:40;;;;;;;5.60;5.10;;;23.10;99.90;;;;;;1051195;28;20028;-65
2022/08/18 01:52:19;;;;;;;5.32;4.78;;;23.10;99.90;;;;;;1051506;28;20024;-64
2022/08/18 01:52:52;;;;;;;5.15;4.65;;;23.10;99.90;;;;;;1051274;28;20024;-64
2022/08/18 01:53:22;;;;;;;5.38;4.72;;;23.10;99.90;;;;;;1051565;28;20438;-65
2022/08/18 01:53:53;;;;;;;4.73;4.20;;;23.10;99.90;;;;;;1051143;28;20643;-65
2022/08/18 01:54:29;;;;;;;5.13;4.63;;;23.10;99.90;;;;;;1051314;28;20048;-65
2022/08/18 01:55:00;;;;;;;4.70;4.30;;;23.10;99.90;;;;;;1051436;28;20095;-64
2022/08/18 01:55:35;;;;;;;5.63;4.45;;;23.10;99.90;;;;;;1051284;28;20111;-65
2022/08/18 01:56:06;;;;;;;5.63;5.13;;;23.10;99.90;;;;;;1051332;28;20020;-64
2022/08/18 01:56:37;;;;;;;5.75;5.25;;;23.10;99.90;;;;;;1046834;28;20028;-64
2022/08/18 01:57:12;;;;;;;5.35;4.85;;;23.10;99.90;;;;;;1046734;28;20017;-64
2022/08/18 01:57:43;;;;;;;4.85;4.45;;;23.10;99.90;;;;;;1046603;28;20480;-64
2022/08/18 01:58:14;;;;;;;7.75;4.75;;;23.10;99.90;;;;;;1047982;28;20073;-65
2022/08/18 01:58:46;;;;;;;5.80;4.87;;;23.10;99.90;;;;;;1051280;28;20085;-64
2022/08/18 01:59:17;;;;;;;5.75;5.13;;;23.00;99.90;;;;;;1051345;28;20024;-65
2022/08/18 01:59:47;;;;;;;5.37;4.93;;;23.10;99.90;;;;;;1051367;28;20024;-65
2022/08/18 02:00:18;;;;;;;6.33;4.53;;;23.10;99.90;;;;;;1046587;28;20732;-65
2022/08/18 02:00:48;;;;;;;5.27;4.77;;;23.10;99.90;;;;;;1046858;28;20031;-65
2022/08/18 02:01:21;;;;;;;5.30;4.87;;;23.00;99.90;;;;;;1046899;28;20028;-65
2022/08/18 02:01:54;;;;;;;6.50;5.15;;;23.10;99.90;;;;;;1047376;28;20129;-65
2022/08/18 02:02:28;;;;;;;5.20;4.80;;;23.10;99.90;;;;;;1051110;28;20092;-64
2022/08/18 02:03:00;;;;;;;5.22;4.40;;;23.10;99.90;;;;;;1051448;28;20020;-65
2022/08/18 02:03:36;;;;;;;4.88;4.47;;;23.10;99.90;;;;;;1050974;28;20095;-64
2022/08/18 02:04:08;;;;;;;6.22;5.00;;;23.00;99.90;;;;;;1051182;28;20545;-66
2022/08/18 02:04:38;;;;;;;5.13;4.60;;;23.00;99.90;;;;;;1051144;28;20024;-64
2022/08/18 02:05:23;;;;;;;5.17;4.67;;;23.10;99.90;;;;;;1050937;28;20020;-64
2022/08/18 02:05:58;;;;;;;5.90;4.57;;;23.00;99.90;;;;;;1051433;28;20012;-64
2022/08/18 02:06:29;;;;;;;6.40;4.88;;;23.00;99.90;;;;;;1051109;28;20565;-66
2022/08/18 02:07:01;;;;;;;5.27;4.50;;;23.00;99.90;;;;;;1051542;28;20846;-64
2022/08/18 02:07:33;;;;;;;8.02;4.97;;;23.00;99.90;;;;;;1051066;28;20035;-66
2022/08/18 02:08:03;;;;;;;5.47;4.97;;;23.00;99.90;;;;;;1051511;28;20039;-65
2022/08/18 02:08:34;;;;;;;4.97;4.57;;;23.00;99.90;;;;;;1051069;28;20030;-65
2022/08/18 02:09:05;;;;;;;5.53;4.93;;;23.00;99.90;;;;;;1051491;28;20558;-66
2022/08/18 02:09:38;;;;;;;6.57;4.97;;;23.00;99.90;;;;;;1051274;28;20023;-65
2022/08/18 02:10:10;;;;;;;5.25;4.75;;;23.00;99.90;;;;;;1051326;28;20020;-65
2022/08/18 02:10:41;;;;;;;5.60;5.00;;;23.10;99.90;;;;;;1051093;28;20119;-65
2022/08/18 02:11:12;;;;;;;5.72;4.38;;;23.00;99.90;;;;;;1051468;28;20013;-65
2022/08/18 02:11:43;;;;;;;5.22;4.63;;;23.00;99.90;;;;;;1051168;28;20128;-65
2022/08/18 02:12:13;;;;;;;5.70;5.10;;;23.00;99.90;;;;;;1051476;28;20012;-65
2022/08/18 02:12:44;;;;;;;5.43;4.93;;;23.10;99.90;;;;;;1051349;28;20017;-65
2022/08/18 02:13:14;;;;;;;5.23;4.73;;;23.00;99.90;;;;;;1055492;28;20106;-65
2022/08/18 02:13:45;;;;;;;4.87;4.40;;;23.00;99.90;;;;;;1055293;28;20012;-65
2022/08/18 02:14:16;;;;;;;5.60;5.10;;;23.00;99.90;;;;;;1055749;28;20398;-64
2022/08/18 02:14:46;;;;;;;4.73;4.30;;;23.00;99.90;;;;;;1055279;28;20383;-65
2022/08/18 02:15:17;;;;;;;5.60;5.10;;;23.00;99.90;;;;;;1055686;28;20027;-66
2022/08/18 02:15:47;;;;;;;4.97;4.53;;;23.00;99.90;;;;;;1055184;28;20019;-65
2022/08/18 02:16:18;;;;;;;4.90;4.40;;;23.00;99.90;;;;;;1055588;28;20020;-67
2022/08/18 02:16:49;;;;;;;4.77;4.37;;;23.00;99.90;;;;;;1055519;28;20092;-64
2022/08/18 02:17:20;;;;;;;5.30;4.80;;;23.00;99.90;;;;;;1055544;28;20885;-64
2022/08/18 02:17:50;;;;;;;5.53;4.97;;;23.00;99.90;;;;;;1055320;28;20023;-63
2022/08/18 02:18:26;;;;;;;6.23;4.87;;;23.10;99.90;;;;;;1055541;28;20023;-63
2022/08/18 02:18:56;;;;;;;5.03;4.53;;;23.10;99.90;;;;;;1055509;28;20019;-65
2022/08/18 02:19:27;;;;;;;5.70;5.20;;;23.10;99.90;;;;;;1055408;28;20035;-63
2022/08/18 02:19:58;;;;;;;5.93;4.70;;;23.00;99.90;;;;;;1050980;28;20024;-65
2022/08/18 02:20:28;;;;;;;6.60;4.60;;;23.10;99.90;;;;;;1050760;28;20084;-65
2022/08/18 02:21:07;;;;;;;5.10;4.17;;;23.00;99.90;;;;;;1051026;28;20031;-65
2022/08/18 02:21:38;;;;;;;5.47;4.97;;;23.00;99.90;;;;;;1048009;28;20020;-64
2022/08/18 02:22:10;;;;;;;5.17;4.67;;;23.10;99.90;;;;;;1051014;28;20020;-64
2022/08/18 02:22:42;;;;;;;5.03;4.53;;;23.00;99.90;;;;;;1050866;28;20020;-64
2022/08/18 02:23:13;;;;;;;4.93;4.53;;;23.10;99.90;;;;;;1051479;28;20024;-64
2022/08/18 02:23:45;;;;;;;4.88;4.47;;;23.00;99.90;;;;;;1055338;28;20051;-64
2022/08/18 02:24:16;;;;;;;5.55;4.90;;;23.10;99.90;;;;;;1055491;28;20027;-64
2022/08/18 02:24:47;;;;;;;5.20;4.70;;;23.10;99.90;;;;;;1055599;28;20100;-64
2022/08/18 02:25:18;;;;;;;5.15;4.50;;;23.10;99.90;;;;;;1055459;28;20019;-64
2022/08/18 02:25:49;;;;;;;5.40;4.90;;;23.00;99.90;;;;;;1055546;28;20102;-65
2022/08/18 02:26:20;;;;;;;5.03;4.45;;;23.00;99.90;;;;;;1055347;28;20015;-65
2022/08/18 02:26:50;;;;;;;4.88;4.40;;;23.10;99.90;;;;;;1055675;28;20008;-65
2022/08/18 02:27:21;;;;;;;5.63;5.13;;;23.00;99.90;;;;;;1055366;28;20051;-64
2022/08/18 02:27:51;;;;;;;5.00;4.60;;;23.00;99.90;;;;;;1055686;28;20118;-64
2022/08/18 02:28:22;;;;;;;5.93;4.97;;;23.00;99.90;;;;;;1055277;28;20019;-64
2022/08/18 02:28:52;;;;;;;5.33;4.83;;;23.00;99.90;;;;;;1055652;28;20047;-64
2022/08/18 02:29:23;;;;;;;5.10;4.60;;;23.00;99.90;;;;;;1055269;28;20102;-64
2022/08/18 02:29:54;;;;;;;5.60;5.10;;;23.00;99.90;;;;;;1055751;28;20023;-65
2022/08/18 02:30:25;;;;;;;5.70;5.07;;;23.00;99.90;;;;;;1055219;28;20479;-64
2022/08/18 02:30:56;;;;;;;7.23;5.00;;;23.00;99.90;;;;;;1055599;28;20431;-64
2022/08/18 02:31:26;;;;;;;5.70;4.43;;;23.00;99.90;;;;;;1055287;28;20467;-64
2022/08/18 02:31:57;;;;;;;5.20;4.80;;;23.00;99.90;;;;;;1055676;28;20015;-65
2022/08/18 02:32:28;;;;;;;5.67;4.80;;;23.00;99.90;;;;;;1055430;28;20008;-64
2022/08/18 02:32:58;;;;;;;4.93;4.43;;;23.00;99.90;;;;;;1055680;28;20087;-65
2022/08/18 02:33:29;;;;;;;5.03;4.30;;;23.00;99.90;;;;;;1055292;28;20040;-64
2022/08/18 02:34:00;;;;;;;5.13;4.63;;;23.00;99.90;;;;;;1055444;28;20016;-64
2022/08/18 02:34:30;;;;;;;4.97;4.53;;;23.00;99.90;;;;;;1055489;28;20019;-64
2022/08/18 02:35:01;;;;;;;5.37;4.87;;;23.00;99.90;;;;;;1055500;28;20011;-64
2022/08/18 02:35:33;;;;;;;5.47;4.97;;;23.00;99.90;;;;;;1055352;28;20099;-66
2022/08/18 02:36:05;;;;;;;5.10;4.68;;;23.00;99.90;;;;;;1055414;28;20019;-64
2022/08/18 02:36:36;;;;;;;5.03;4.53;;;23.00;99.90;;;;;;1055368;28;20379;-64
2022/08/18 02:37:07;;;;;;;5.57;5.07;;;23.00;99.90;;;;;;1055346;28;20464;-64
2022/08/18 02:37:38;;;;;;;5.00;4.50;;;23.00;99.90;;;;;;1055702;28;20069;-64
2022/08/18 02:38:09;;;;;;;5.97;5.05;;;23.00;99.90;;;;;;1055241;28;20019;-64
2022/08/18 02:38:41;;;;;;;5.60;5.10;;;23.00;99.90;;;;;;1055516;28;20020;-64
2022/08/18 02:39:11;;;;;;;5.70;5.20;;;23.00;99.90;;;;;;1055067;28;20073;-65
2022/08/18 02:39:42;;;;;;;7.00;4.77;;;23.00;99.90;;;;;;1055355;28;20012;-64
2022/08/18 02:40:14;;;;;;;6.00;5.40;;;23.00;99.90;;;;;;1055622;28;20106;-64
2022/08/18 02:40:45;;;;;;;5.20;4.70;;;23.00;99.90;;;;;;1055456;28;20025;-64
2022/08/18 02:41:15;;;;;;;4.30;3.90;;;23.00;99.90;;;;;;1055370;28;20020;-64
2022/08/18 02:41:46;;;;;;;5.10;4.60;;;23.00;99.90;;;;;;1055536;28;20242;-64
2022/08/18 02:42:17;;;;;;;5.47;4.83;;;23.00;99.90;;;;;;1055442;28;20018;-64
2022/08/18 02:42:48;;;;;;;5.73;4.80;;;23.00;99.90;;;;;;1055499;28;20015;-65
2022/08/18 02:43:19;;;;;;;5.45;4.25;;;23.00;99.90;;;;;;1055413;28;20098;-64
2022/08/18 02:43:49;;;;;;;6.30;5.47;;;23.00;99.90;;;;;;1055395;28;20031;-64
2022/08/18 02:44:20;;;;;;;5.77;5.27;;;23.00;99.90;;;;;;1055209;28;20020;-64
2022/08/18 02:44:51;;;;;;;5.57;5.00;;;23.00;99.90;;;;;;1055554;28;20058;-64
2022/08/18 02:45:24;;;;;;;5.07;4.20;;;23.00;99.90;;;;;;1055351;28;20439;-64
2022/08/18 02:45:56;;;;;;;5.40;4.90;;;23.00;99.90;;;;;;1055608;28;20030;-64
2022/08/18 02:46:27;;;;;;;5.38;4.88;;;23.00;99.90;;;;;;1055126;28;20419;-64
2022/08/18 02:46:57;;;;;;;5.10;4.60;;;23.00;99.90;;;;;;1055641;28;20474;-64
2022/08/18 02:47:28;;;;;;;5.57;4.90;;;23.00;99.90;;;;;;1055097;28;20027;-64
2022/08/18 02:47:58;;;;;;;5.00;4.57;;;23.00;99.90;;;;;;1055787;28;20015;-65
2022/08/18 02:48:35;;;;;;;5.47;4.97;;;23.00;99.90;;;;;;1055155;28;20024;-64
2022/08/18 02:49:06;;;;;;;5.10;4.60;;;23.00;99.90;;;;;;1055551;28;20019;-64
2022/08/18 02:49:37;;;;;;;5.82;5.05;;;23.00;99.90;;;;;;1055359;28;20030;-64
2022/08/18 02:50:09;;;;;;;6.22;5.15;;;23.00;99.90;;;;;;1055489;28;20019;-64
2022/08/18 02:50:48;;;;;;;5.00;4.50;;;23.00;99.90;;;;;;1056238;28;20130;-64
2022/08/18 02:51:19;;;;;;;5.18;4.68;;;23.00;99.90;;;;;;1056370;28;20462;-63
2022/08/18 02:51:51;;;;;;;5.37;4.53;;;23.00;99.90;;;;;;1056008;28;20467;-64
2022/08/18 02:52:22;;;;;;;5.35;4.85;;;23.00;99.90;;;;;;1056259;28;20550;-63
2022/08/18 02:52:53;;;;;;;5.47;4.97;;;23.00;99.90;;;;;;1056305;28;20475;-64
2022/08/18 02:53:24;;;;;;;5.13;4.63;;;23.00;99.90;;;;;;1056350;28;20426;-64
2022/08/18 02:53:57;;;;;;;4.83;4.33;;;23.00;99.90;;;;;;1056231;28;20467;-64
2022/08/18 02:54:28;;;;;;;4.72;3.88;;;23.00;99.90;;;;;;1056214;28;20019;-63
2022/08/18 02:55:02;;;;;;;4.23;3.83;;;23.00;99.90;;;;;;1051561;28;20165;-64
2022/08/18 02:55:33;;;;;;;5.25;4.63;;;23.00;99.90;;;;;;1051479;28;20078;-63
2022/08/18 02:56:15;;;;;;;5.23;4.60;;;23.00;99.90;;;;;;1051731;28;20027;-64
2022/08/18 02:56:46;;;;;;;6.00;5.43;;;23.00;99.90;;;;;;1051612;28;20024;-63